createdAt,value
2019-02-23T00:02:10.031Z,-1.07
2019-02-23T00:04:38.479Z,-1.06
2019-02-23T00:07:06.909Z,-0.99
2019-02-23T00:09:35.353Z,-0.97
2019-02-23T00:12:04.646Z,-1.01
2019-02-23T00:14:33.218Z,-1.06
2019-02-23T00:17:01.641Z,-1.09
2019-02-23T00:19:30.095Z,-1.13
2019-02-23T00:21:58.514Z,-1.12
2019-02-23T00:24:26.967Z,-1.09
2019-02-23T00:26:55.388Z,-1.02
2019-02-23T00:29:23.849Z,-0.98
2019-02-23T00:31:52.274Z,-0.89
2019-02-23T00:34:20.725Z,-0.86
2019-02-23T00:36:49.145Z,-0.83
2019-02-23T00:39:17.593Z,-0.79
2019-02-23T00:41:46.020Z,-0.80
2019-02-23T00:44:14.474Z,-0.82
2019-02-23T00:46:42.903Z,-0.80
2019-02-23T00:49:11.327Z,-0.81
2019-02-23T00:51:39.786Z,-0.82
2019-02-23T00:54:08.208Z,-0.82
2019-02-23T00:56:36.659Z,-0.87
2019-02-23T00:59:05.087Z,-0.88
2019-02-23T01:01:33.545Z,-0.94
2019-02-23T01:04:01.977Z,-0.96
2019-02-23T01:06:30.435Z,-0.93
2019-02-23T01:08:58.864Z,-0.90
2019-02-23T01:11:27.327Z,-0.86
2019-02-23T01:13:55.759Z,-0.85
2019-02-23T01:16:24.216Z,-0.82
2019-02-23T01:18:52.651Z,-0.84
2019-02-23T01:21:21.108Z,-0.85
2019-02-23T01:23:49.528Z,-0.86
2019-02-23T01:26:17.987Z,-0.85
2019-02-23T01:28:46.415Z,-0.83
2019-02-23T01:31:14.934Z,-0.85
2019-02-23T01:33:43.431Z,-0.86
2019-02-23T01:36:11.883Z,-0.95
2019-02-23T01:38:40.387Z,-0.98
2019-02-23T01:41:08.908Z,-1.06
2019-02-23T01:43:37.334Z,-1.11
2019-02-23T01:46:05.764Z,-1.13
2019-02-23T01:48:34.220Z,-1.18
2019-02-23T01:51:02.656Z,-1.26
2019-02-23T01:53:31.106Z,-1.23
2019-02-23T01:55:59.530Z,-1.23
2019-02-23T01:58:27.990Z,-1.19
2019-02-23T02:00:57.398Z,-1.20
2019-02-23T02:03:27.686Z,-1.19
2019-02-23T02:05:56.276Z,-1.21
2019-02-23T02:08:24.801Z,-1.24
2019-02-23T02:10:53.225Z,-1.22
2019-02-23T02:13:21.743Z,-1.20
2019-02-23T02:15:50.335Z,-1.25
2019-02-23T02:18:18.797Z,-1.35
2019-02-23T02:20:47.219Z,-1.38
2019-02-23T02:23:15.736Z,-1.40
2019-02-23T02:25:44.163Z,-1.43
2019-02-23T02:28:12.614Z,-1.35
2019-02-23T02:30:41.039Z,-1.33
2019-02-23T02:33:09.494Z,-1.33
2019-02-23T02:35:37.917Z,-1.31
2019-02-23T02:38:06.370Z,-1.28
2019-02-23T02:40:34.789Z,-1.33
2019-02-23T02:43:03.246Z,-1.42
2019-02-23T02:45:31.746Z,-1.50
2019-02-23T02:48:00.193Z,-1.60
2019-02-23T02:50:28.615Z,-1.62
2019-02-23T02:52:57.065Z,-1.62
2019-02-23T02:55:25.502Z,-1.60
2019-02-23T02:57:53.977Z,-1.62
2019-02-23T03:00:22.388Z,-1.68
2019-02-23T03:02:50.886Z,-1.81
2019-02-23T03:05:19.345Z,-1.93
2019-02-23T03:07:47.759Z,-1.99
2019-02-23T03:10:16.275Z,-1.93
2019-02-23T03:12:44.694Z,-1.82
2019-02-23T03:15:13.203Z,-1.81
2019-02-23T03:17:41.624Z,-1.78
2019-02-23T03:20:10.148Z,-1.76
2019-02-23T03:22:38.565Z,-1.82
2019-02-23T03:25:07.863Z,-1.89
2019-02-23T03:27:36.279Z,-1.97
2019-02-23T03:30:07.306Z,-2.05
2019-02-23T03:32:35.774Z,-2.11
2019-02-23T03:35:05.184Z,-2.09
2019-02-23T03:37:33.612Z,-2.06
2019-02-23T03:40:02.065Z,-2.11
2019-02-23T03:42:30.495Z,-2.16
2019-02-23T03:44:58.949Z,-2.14
2019-02-23T03:47:27.373Z,-2.12
2019-02-23T03:49:55.820Z,-2.11
2019-02-23T03:52:24.246Z,-2.07
2019-02-23T03:54:52.709Z,-2.00
2019-02-23T03:57:21.192Z,-1.89
2019-02-23T03:59:49.641Z,-1.78
2019-02-23T04:02:18.067Z,-1.71
2019-02-23T04:04:46.520Z,-1.62
2019-02-23T04:07:14.945Z,-1.58
2019-02-23T04:09:43.398Z,-1.63
2019-02-23T04:12:11.834Z,-1.71
2019-02-23T04:14:40.285Z,-1.87
2019-02-23T04:17:08.712Z,-1.82
2019-02-23T04:19:37.202Z,-1.78
2019-02-23T04:22:05.625Z,-1.84
2019-02-23T04:24:34.050Z,-1.88
2019-02-23T04:27:02.508Z,-2.07
2019-02-23T04:29:30.942Z,-2.23
2019-02-23T04:31:59.396Z,-2.38
2019-02-23T04:34:27.832Z,-2.49
2019-02-23T04:36:56.277Z,-2.44
2019-02-23T04:39:24.693Z,-2.31
2019-02-23T04:41:53.146Z,-2.21
2019-02-23T04:44:21.561Z,-2.15
2019-02-23T04:46:50.008Z,-2.07
2019-02-23T04:49:18.426Z,-2.04
2019-02-23T04:51:46.871Z,-2.09
2019-02-23T04:54:15.297Z,-2.11
2019-02-23T04:56:43.751Z,-2.15
2019-02-23T04:59:12.182Z,-2.12
2019-02-23T05:01:40.634Z,-2.06
2019-02-23T05:04:09.060Z,-2.09
2019-02-23T05:06:37.519Z,-1.87
2019-02-23T05:09:05.997Z,-1.73
2019-02-23T05:11:34.465Z,-1.83
2019-02-23T05:14:02.884Z,-1.90
2019-02-23T05:16:31.333Z,-1.95
2019-02-23T05:18:59.759Z,-1.98
2019-02-23T05:21:28.224Z,-1.89
2019-02-23T05:23:56.655Z,-2.01
2019-02-23T05:26:25.100Z,-2.12
2019-02-23T05:28:53.524Z,-2.16
2019-02-23T05:31:22.358Z,-2.23
2019-02-23T05:33:50.989Z,-2.20
2019-02-23T05:36:19.447Z,-2.25
2019-02-23T05:38:48.442Z,-2.24
2019-02-23T05:41:16.894Z,-2.26
2019-02-23T05:43:45.312Z,-2.21
2019-02-23T05:46:13.770Z,-2.19
2019-02-23T05:48:42.193Z,-2.27
2019-02-23T05:51:10.622Z,-2.36
2019-02-23T05:53:39.077Z,-2.39
2019-02-23T05:56:07.496Z,-2.35
2019-02-23T05:58:35.954Z,-2.48
2019-02-23T06:01:04.383Z,-2.61
2019-02-23T06:03:32.843Z,-2.60
2019-02-23T06:06:01.263Z,-2.64
2019-02-23T06:08:29.714Z,-2.63
2019-02-23T06:10:58.135Z,-2.62
2019-02-23T06:13:26.591Z,-2.66
2019-02-23T06:15:55.016Z,-2.67
2019-02-23T06:18:23.477Z,-2.73
2019-02-23T06:20:51.895Z,-2.77
2019-02-23T06:23:20.361Z,-2.80
2019-02-23T06:25:48.790Z,-2.79
2019-02-23T06:28:17.328Z,-2.74
2019-02-23T06:30:45.769Z,-2.72
2019-02-23T06:33:14.228Z,-2.72
2019-02-23T06:35:42.651Z,-2.64
2019-02-23T06:38:11.106Z,-2.67
2019-02-23T06:40:39.529Z,-2.63
2019-02-23T06:43:07.980Z,-2.58
2019-02-23T06:45:36.418Z,-2.48
2019-02-23T06:48:04.881Z,-2.43
2019-02-23T06:50:33.314Z,-2.41
2019-02-23T06:53:01.769Z,-2.36
2019-02-23T06:55:30.202Z,-2.32
2019-02-23T06:57:58.665Z,-2.25
2019-02-23T07:00:27.169Z,-2.21
2019-02-23T07:02:55.623Z,-2.20
2019-02-23T07:05:24.048Z,-2.14
2019-02-23T07:07:52.475Z,-2.08
2019-02-23T07:10:21.096Z,-1.99
2019-02-23T07:12:49.532Z,-1.89
2019-02-23T07:15:18.050Z,-1.80
2019-02-23T07:17:46.483Z,-1.70
2019-02-23T07:20:14.942Z,-1.58
2019-02-23T07:22:43.379Z,-1.49
2019-02-23T07:25:11.889Z,-1.41
2019-02-23T07:27:40.320Z,-1.33
2019-02-23T07:30:11.951Z,-1.23
2019-02-23T07:32:40.379Z,-1.20
2019-02-23T07:35:09.393Z,-1.24
2019-02-23T07:37:37.896Z,-1.18
2019-02-23T07:40:09.534Z,-1.11
2019-02-23T07:42:38.023Z,-1.00
2019-02-23T07:45:08.624Z,-0.91
2019-02-23T07:47:37.123Z,-0.97
2019-02-23T07:50:08.379Z,-0.96
2019-02-23T07:52:36.810Z,-0.99
2019-02-23T07:55:06.306Z,-0.93
2019-02-23T07:57:34.737Z,-0.84
2019-02-23T08:00:03.193Z,-0.75
2019-02-23T08:02:31.613Z,-0.58
2019-02-23T08:05:00.111Z,-0.58
2019-02-23T08:07:28.741Z,-0.45
2019-02-23T08:09:57.198Z,-0.25
2019-02-23T08:12:25.623Z,-0.24
2019-02-23T08:14:54.075Z,-0.18
2019-02-23T08:17:22.780Z,-0.05
2019-02-23T08:19:51.382Z,-0.01
2019-02-23T08:22:19.928Z,-0.01
2019-02-23T08:24:48.530Z,0.03
2019-02-23T08:27:17.111Z,-0.02
2019-02-23T08:29:48.650Z,-0.09
2019-02-23T08:32:17.143Z,0.04
2019-02-23T08:34:45.848Z,0.24
2019-02-23T08:37:14.256Z,0.21
2019-02-23T08:39:42.706Z,0.28
2019-02-23T08:42:11.125Z,0.38
2019-02-23T08:44:39.570Z,0.46
2019-02-23T08:47:08.182Z,0.48
2019-02-23T08:49:36.647Z,0.49
2019-02-23T08:52:05.479Z,0.58
2019-02-23T08:54:33.925Z,0.76
2019-02-23T08:57:02.342Z,0.72
2019-02-23T08:59:30.784Z,0.75
2019-02-23T09:01:59.378Z,0.84
2019-02-23T09:04:27.786Z,1.00
2019-02-23T09:06:56.239Z,1.13
2019-02-23T09:09:24.649Z,1.28
2019-02-23T09:11:53.096Z,1.39
2019-02-23T09:14:21.511Z,1.51
2019-02-23T09:16:49.956Z,1.69
2019-02-23T09:19:18.369Z,1.71
2019-02-23T09:21:46.816Z,1.57
2019-02-23T09:24:15.232Z,1.43
2019-02-23T09:26:43.676Z,1.42
2019-02-23T09:29:12.091Z,1.65
2019-02-23T09:31:40.536Z,1.74
2019-02-23T09:34:08.948Z,1.78
2019-02-23T09:36:37.398Z,1.66
2019-02-23T09:39:06.051Z,1.80
2019-02-23T09:41:34.502Z,1.84
2019-02-23T09:44:02.920Z,1.99
2019-02-23T09:46:31.371Z,2.21
2019-02-23T09:48:59.798Z,2.21
2019-02-23T09:51:28.237Z,2.25
2019-02-23T09:53:56.652Z,2.28
2019-02-23T09:56:25.094Z,2.29
2019-02-23T09:58:53.512Z,2.36
2019-02-23T10:01:21.955Z,2.66
2019-02-23T10:03:50.372Z,2.69
2019-02-23T10:06:18.817Z,2.73
2019-02-23T10:08:47.314Z,2.73
2019-02-23T10:11:15.758Z,2.88
2019-02-23T10:13:44.170Z,2.87
2019-02-23T10:16:12.620Z,3.15
2019-02-23T10:18:41.041Z,3.15
2019-02-23T10:21:09.491Z,2.88
2019-02-23T10:23:37.908Z,2.75
2019-02-23T10:26:06.350Z,2.68
2019-02-23T10:28:34.764Z,2.82
2019-02-23T10:31:03.209Z,2.94
2019-02-23T10:33:31.629Z,2.91
2019-02-23T10:36:00.083Z,3.00
2019-02-23T10:38:28.490Z,3.06
2019-02-23T10:40:56.936Z,3.44
2019-02-23T10:43:25.359Z,3.57
2019-02-23T10:45:53.806Z,3.85
2019-02-23T10:48:22.220Z,3.66
2019-02-23T10:50:50.635Z,3.48
2019-02-23T10:53:19.080Z,3.39
2019-02-23T10:55:47.497Z,3.44
2019-02-23T10:58:15.932Z,3.63
2019-02-23T11:00:44.582Z,3.84
2019-02-23T11:03:13.028Z,3.72
2019-02-23T11:05:41.442Z,3.72
2019-02-23T11:08:09.889Z,3.65
2019-02-23T11:10:38.301Z,3.61
2019-02-23T11:13:06.771Z,3.56
2019-02-23T11:15:35.226Z,3.54
2019-02-23T11:18:03.673Z,3.45
2019-02-23T11:20:32.552Z,3.61
2019-02-23T11:23:01.138Z,3.78
2019-02-23T11:25:29.561Z,3.95
2019-02-23T11:27:57.999Z,3.96
2019-02-23T11:30:26.419Z,3.89
2019-02-23T11:32:54.860Z,3.90
2019-02-23T11:35:23.346Z,3.98
2019-02-23T11:37:51.788Z,4.11
2019-02-23T11:40:20.203Z,4.32
2019-02-23T11:42:48.642Z,4.32
2019-02-23T11:45:17.132Z,4.64
2019-02-23T11:47:45.573Z,4.64
2019-02-23T11:50:14.218Z,4.44
2019-02-23T11:52:42.654Z,4.44
2019-02-23T11:55:11.139Z,4.70
2019-02-23T11:57:39.581Z,4.88
2019-02-23T12:00:11.499Z,4.88
2019-02-23T12:02:39.944Z,5.05
2019-02-23T12:05:09.511Z,5.36
2019-02-23T12:07:37.958Z,5.36
2019-02-23T12:10:11.712Z,5.50
2019-02-23T12:12:40.229Z,4.95
2019-02-23T12:15:09.211Z,4.95
2019-02-23T12:17:37.623Z,4.94
2019-02-23T12:20:08.302Z,4.92
2019-02-23T12:22:36.715Z,4.92
2019-02-23T12:25:06.703Z,5.21
2019-02-23T12:27:35.114Z,5.21
2019-02-23T12:30:03.634Z,5.24
2019-02-23T12:32:32.049Z,5.28
2019-02-23T12:35:00.490Z,5.50
2019-02-23T12:37:28.906Z,5.38
2019-02-23T12:39:57.346Z,5.25
2019-02-23T12:42:27.515Z,5.23
2019-02-23T12:44:55.935Z,5.36
2019-02-23T12:47:24.359Z,5.36
2019-02-23T12:49:52.861Z,5.30
2019-02-23T12:52:21.339Z,5.33
2019-02-23T12:54:49.785Z,5.66
2019-02-23T12:57:18.264Z,5.94
2019-02-23T12:59:46.712Z,5.94
2019-02-23T13:02:15.124Z,6.00
2019-02-23T13:04:43.567Z,6.00
2019-02-23T13:07:11.986Z,5.69
2019-02-23T13:09:41.569Z,5.75
2019-02-23T13:12:16.056Z,5.75
2019-02-23T13:14:47.770Z,5.82
2019-02-23T13:17:19.382Z,5.93
2019-02-23T13:19:51.014Z,5.92
2019-02-23T13:22:31.676Z,5.92
2019-02-23T13:25:18.178Z,5.65
2019-02-23T13:27:58.812Z,5.65
2019-02-23T13:30:42.592Z,5.62
2019-02-23T13:33:17.162Z,5.65
2019-02-23T13:36:10.725Z,5.67
2019-02-23T13:38:51.314Z,5.67
2019-02-23T13:41:44.310Z,5.60
2019-02-23T13:44:19.372Z,5.65
2019-02-23T13:46:54.302Z,5.82
2019-02-23T13:49:40.681Z,5.82
2019-02-23T13:52:21.277Z,5.89
2019-02-23T13:55:09.772Z,5.86
2019-02-23T13:57:50.228Z,5.86
2019-02-23T14:00:39.402Z,5.82
2019-02-23T14:03:16.927Z,5.82
2019-02-23T14:06:03.486Z,5.82
2019-02-23T14:09:03.896Z,5.82
2019-02-23T14:11:47.584Z,6.10
2019-02-23T14:14:35.619Z,6.12
2019-02-23T14:17:07.237Z,6.12
2019-02-23T14:20:12.519Z,6.41
2019-02-23T14:22:44.123Z,6.48
2019-02-23T14:25:30.534Z,6.48
2019-02-23T14:28:21.710Z,6.58
2019-02-23T14:30:58.903Z,6.54
2019-02-23T14:33:52.849Z,6.60
2019-02-23T14:36:27.140Z,6.63
2019-02-23T14:39:15.299Z,6.50
2019-02-23T14:42:05.289Z,6.37
2019-02-23T14:44:39.928Z,6.21
2019-02-23T14:47:26.414Z,6.21
2019-02-23T14:49:58.026Z,6.23
2019-02-23T14:52:38.699Z,6.23
2019-02-23T14:55:33.051Z,6.32
2019-02-23T14:58:04.627Z,6.32
2019-02-23T15:00:51.137Z,6.12
2019-02-23T15:03:37.897Z,6.05
2019-02-23T15:06:15.189Z,5.88
2019-02-23T15:09:07.769Z,5.75
2019-02-23T15:11:41.791Z,5.57
2019-02-23T15:14:19.169Z,5.57
2019-02-23T15:16:59.966Z,5.51
2019-02-23T15:19:43.716Z,5.48
2019-02-23T15:22:37.562Z,5.49
2019-02-23T15:25:36.369Z,5.40
2019-02-23T15:28:37.435Z,5.40
2019-02-23T15:31:20.577Z,5.37
2019-02-23T15:34:17.985Z,5.32
2019-02-23T15:37:00.947Z,5.32
2019-02-23T15:39:41.097Z,5.29
2019-02-23T15:42:32.684Z,5.19
2019-02-23T15:45:21.205Z,5.14
2019-02-23T15:47:55.651Z,5.14
2019-02-23T15:50:24.096Z,5.07
2019-02-23T15:52:52.545Z,5.07
2019-02-23T15:55:26.151Z,4.97
2019-02-23T15:57:51.274Z,4.95
2019-02-23T16:00:19.775Z,4.80
2019-02-23T16:02:48.197Z,4.74
2019-02-23T16:05:16.649Z,4.74
2019-02-23T16:07:45.062Z,4.67
2019-02-23T16:10:13.580Z,4.59
2019-02-23T16:12:41.994Z,4.59
2019-02-23T16:15:10.514Z,4.49
2019-02-23T16:17:38.936Z,4.35
2019-02-23T16:20:08.421Z,4.34
2019-02-23T16:22:36.835Z,4.34
2019-02-23T16:25:05.617Z,4.29
2019-02-23T16:27:34.033Z,4.15
2019-02-23T16:30:02.487Z,4.26
2019-02-23T16:32:30.967Z,4.26
2019-02-23T16:34:59.411Z,4.22
2019-02-23T16:37:27.833Z,4.22
2019-02-23T16:39:56.283Z,4.19
2019-02-23T16:42:24.699Z,3.93
2019-02-23T16:44:53.151Z,3.93
2019-02-23T16:47:21.561Z,3.82
2019-02-23T16:49:50.053Z,3.78
2019-02-23T16:52:18.491Z,3.67
2019-02-23T16:54:46.962Z,3.57
2019-02-23T16:57:17.456Z,3.39
2019-02-23T16:59:45.546Z,3.26
2019-02-23T17:02:13.997Z,3.20
2019-02-23T17:04:52.980Z,3.22
2019-02-23T17:07:12.569Z,3.24
2019-02-23T17:09:40.991Z,3.28
2019-02-23T17:12:09.431Z,3.29
2019-02-23T17:14:37.841Z,3.32
2019-02-23T17:17:06.292Z,3.39
2019-02-23T17:19:34.705Z,3.37
2019-02-23T17:22:03.181Z,3.32
2019-02-23T17:24:31.600Z,3.28
2019-02-23T17:27:00.041Z,3.26
2019-02-23T17:29:28.456Z,3.16
2019-02-23T17:31:56.902Z,3.07
2019-02-23T17:34:25.339Z,3.04
2019-02-23T17:36:53.790Z,3.00
2019-02-23T17:39:22.208Z,2.88
2019-02-23T17:41:50.661Z,2.77
2019-02-23T17:44:19.074Z,2.73
2019-02-23T17:46:48.591Z,2.81
2019-02-23T17:49:17.121Z,2.76
2019-02-23T17:51:45.559Z,2.78
2019-02-23T17:54:13.984Z,2.81
2019-02-23T17:56:42.497Z,2.81
2019-02-23T17:59:10.913Z,2.77
2019-02-23T18:01:39.367Z,2.70
2019-02-23T18:04:07.784Z,2.67
2019-02-23T18:06:36.218Z,2.64
2019-02-23T18:09:05.382Z,2.61
2019-02-23T18:11:33.797Z,2.61
2019-02-23T18:14:02.239Z,2.60
2019-02-23T18:16:30.658Z,2.58
2019-02-23T18:18:59.110Z,2.50
2019-02-23T18:21:27.524Z,2.49
2019-02-23T18:23:55.967Z,2.48
2019-02-23T18:26:24.851Z,2.46
2019-02-23T18:28:53.289Z,2.40
2019-02-23T18:31:21.708Z,2.27
2019-02-23T18:33:50.164Z,2.06
2019-02-23T18:36:18.582Z,1.91
2019-02-23T18:38:47.398Z,1.75
2019-02-23T18:41:15.813Z,1.72
2019-02-23T18:43:44.266Z,1.68
2019-02-23T18:46:12.687Z,1.55
2019-02-23T18:48:41.135Z,1.35
2019-02-23T18:51:09.553Z,1.15
2019-02-23T18:53:37.991Z,1.08
2019-02-23T18:56:06.975Z,0.94
2019-02-23T18:58:35.419Z,0.83
2019-02-23T19:01:03.846Z,0.88
2019-02-23T19:03:32.284Z,0.74
2019-02-23T19:06:00.707Z,0.87
2019-02-23T19:08:29.150Z,0.85
2019-02-23T19:10:57.566Z,0.80
2019-02-23T19:13:26.012Z,0.71
2019-02-23T19:15:54.474Z,0.67
2019-02-23T19:18:22.970Z,0.60
2019-02-23T19:20:51.391Z,0.55
2019-02-23T19:23:19.814Z,0.55
2019-02-23T19:25:48.264Z,0.57
2019-02-23T19:28:16.692Z,0.48
2019-02-23T19:30:45.147Z,0.44
2019-02-23T19:33:13.570Z,0.38
2019-02-23T19:35:42.018Z,0.33
2019-02-23T19:38:10.440Z,0.30
2019-02-23T19:40:38.887Z,0.20
2019-02-23T19:43:07.310Z,0.16
2019-02-23T19:45:35.758Z,0.16
2019-02-23T19:48:04.183Z,0.12
2019-02-23T19:50:35.848Z,0.09
2019-02-23T19:53:04.273Z,0.10
2019-02-23T19:55:32.728Z,0.08
2019-02-23T19:58:01.158Z,0.06
2019-02-23T20:00:29.669Z,0.08
2019-02-23T20:02:58.089Z,0.06
2019-02-23T20:05:26.586Z,0.03
2019-02-23T20:07:55.045Z,-0.05
2019-02-23T20:10:23.499Z,-0.12
2019-02-23T20:12:51.921Z,-0.16
2019-02-23T20:15:20.366Z,-0.21
2019-02-23T20:17:48.801Z,-0.28
2019-02-23T20:20:17.280Z,-0.35
2019-02-23T20:22:45.681Z,-0.37
2019-02-23T20:25:14.129Z,-0.38
2019-02-23T20:27:42.555Z,-0.38
2019-02-23T20:30:12.046Z,-0.36
2019-02-23T20:32:40.469Z,-0.32
2019-02-23T20:35:09.388Z,-0.30
2019-02-23T20:37:37.812Z,-0.30
2019-02-23T20:40:08.373Z,-0.26
2019-02-23T20:42:36.796Z,-0.18
2019-02-23T20:45:07.276Z,-0.22
2019-02-23T20:47:35.778Z,-0.30
2019-02-23T20:50:06.669Z,-0.38
2019-02-23T20:52:35.090Z,-0.49
2019-02-23T20:55:03.882Z,-0.50
2019-02-23T20:57:32.355Z,-0.51
2019-02-23T21:00:00.757Z,-0.50
2019-02-23T21:02:29.210Z,-0.49
2019-02-23T21:04:57.634Z,-0.50
2019-02-23T21:07:26.084Z,-0.51
2019-02-23T21:09:54.508Z,-0.59
2019-02-23T21:12:22.967Z,-0.66
2019-02-23T21:14:51.397Z,-0.72
2019-02-23T21:17:19.840Z,-0.90
2019-02-23T21:19:48.276Z,-1.05
2019-02-23T21:22:16.733Z,-1.16
2019-02-23T21:24:45.159Z,-1.19
2019-02-23T21:27:13.616Z,-1.18
2019-02-23T21:29:42.041Z,-1.16
2019-02-23T21:32:10.496Z,-1.11
2019-02-23T21:34:38.924Z,-1.04
2019-02-23T21:37:07.375Z,-0.95
2019-02-23T21:39:35.800Z,-0.91
2019-02-23T21:42:04.260Z,-0.92
2019-02-23T21:44:32.690Z,-1.09
2019-02-23T21:47:01.137Z,-1.11
2019-02-23T21:49:29.562Z,-1.15
2019-02-23T21:51:58.014Z,-1.20
2019-02-23T21:54:26.442Z,-1.28
2019-02-23T21:56:56.597Z,-1.34
2019-02-23T21:59:25.113Z,-1.33
2019-02-23T22:01:53.564Z,-1.33
2019-02-23T22:04:21.994Z,-1.39
2019-02-23T22:06:50.447Z,-1.33
2019-02-23T22:09:18.881Z,-1.23
2019-02-23T22:11:47.325Z,-1.15
2019-02-23T22:14:15.749Z,-1.11
2019-02-23T22:16:44.174Z,-1.11
2019-02-23T22:19:12.644Z,-1.19
2019-02-23T22:21:41.068Z,-1.22
2019-02-23T22:24:09.519Z,-1.34
2019-02-23T22:26:37.940Z,-1.44
2019-02-23T22:29:06.415Z,-1.54
2019-02-23T22:31:34.821Z,-1.66
2019-02-23T22:34:03.279Z,-1.68
2019-02-23T22:36:31.696Z,-1.71
2019-02-23T22:39:00.142Z,-1.65
2019-02-23T22:41:28.635Z,-1.55
2019-02-23T22:43:57.085Z,-1.55
2019-02-23T22:46:25.511Z,-1.65
2019-02-23T22:48:53.968Z,-1.77
2019-02-23T22:51:22.388Z,-1.76
2019-02-23T22:53:50.842Z,-1.66
2019-02-23T22:56:19.269Z,-1.61
2019-02-23T22:58:47.719Z,-1.60
2019-02-23T23:01:16.614Z,-1.55
2019-02-23T23:03:45.130Z,-1.53
2019-02-23T23:06:13.547Z,-1.55
2019-02-23T23:08:42.071Z,-1.48
2019-02-23T23:11:10.494Z,-1.36
2019-02-23T23:13:38.949Z,-1.25
2019-02-23T23:16:07.444Z,-1.10
2019-02-23T23:18:35.870Z,-1.00
2019-02-23T23:21:04.317Z,-0.90
2019-02-23T23:23:32.742Z,-0.84
2019-02-23T23:26:01.212Z,-0.79
2019-02-23T23:28:29.634Z,-0.78
2019-02-23T23:30:58.081Z,-0.72
2019-02-23T23:33:26.504Z,-0.66
2019-02-23T23:35:54.963Z,-0.68
2019-02-23T23:38:23.386Z,-0.66
2019-02-23T23:40:51.833Z,-0.62
2019-02-23T23:43:20.252Z,-0.63
2019-02-23T23:45:48.713Z,-0.66
2019-02-23T23:48:17.130Z,-0.70
2019-02-23T23:50:45.579Z,-0.69
2019-02-23T23:53:14.069Z,-0.70
2019-02-23T23:55:42.530Z,-0.72
2019-02-23T23:58:10.949Z,-0.75
